Terminal Aerodrome Forecast
Issued by NWS Charleston, WV

Home | Current Version | Previous Version | Text Only | Print | Product List | Glossary On
Versions: 1 2 3 4 5 6 7 8 9 10 11 12 13 14 15 16 17 18 19 20 21 22 23 24 25 26
760
FTUS41 KRLX 181417 AAA
TAFBKW
TAF AMD
KBKW 181417Z 1814/1912 30010KT P6SM -RADZ BKN008 OVC015
     FM181600 29010G16KT P6SM BKN010
     FM182300 30006KT P6SM SCT007
     FM190500 VRB03KT P6SM SCT010
     FM191000 00000KT P6SM SCT150=

USA.gov is the U.S. government's official web portal to all federal, state and local government web resources and services.